Main page
METAR-TAF:

METAR-TAF

Airports :

Algeciras Heliport

Algeciras, Spain

latitude: 36-07-44N, longitude: 05-26-28W, elevation: 30 m

Current weather observation

The report was made 35 minutes ago, at 01:00 UTC
Wind 3 kt from the West, varying between West/Southwest and Northwest
Temperature 17°C
Humidity 68%
Pressure 1013 hPa
Visibility 10 km or more
no clouds below 1500 m and no cumulonimbus

METAR: LEAG 230100Z AUTO 27003KT 240V320 CAVOK 17/11 Q1013

Time: 03:35 (01:35 UTC)

Forecast

The report was made 11 hours and 35 minutes ago, at 14:00 UTC
Forecast valid from 22 at 15 UTC to 23 at 15 UTC
Wind 13 kt from the South/Southeast
Visibility 10 km or more
no clouds below 1500 m and no cumulonimbus
Becoming
from 22 at 16 UTC to 22 at 18 UTC
Wind 7 kt from the North/Northwest
Becoming
from 23 at 01 UTC to 23 at 03 UTC
Wind 10 kt from the East

TAF: LEAG 221400Z 2215/2315 15013KT CAVOK TX17/2215Z TN14/2306Z BECMG 2216/2218 34007KT BECMG 2301/2303 09010KT

Weather observations and forecasts of more than 4000 airports (METAR and TAF reports).

The available stations are represented by yellow and red dots on the map.

Hover mouse over dot to see the name of the station.

Then click to see weather observations and forecasts.

To change the map : click on the green buttons with a black cross to zoom in, on the green button with a dash to zoom out, or on the green arrows for adjacent maps.


METAR-TAF: